Time;durP1;ratioP1;P1;durP2;ratioP2;P2;SDS_P1;SDS_P2;PMS_P1;PMS_P2;Temp;Humidity;BMP_temperature;BMP_pressure;BME280_temperature;BME280_humidity;BME280_pressure;Samples;Min_cycle;Max_cycle;Signal;HPM_P1;HPM_P2
2022/03/15 00:00:20;;;;;;;31.85;8.20;;;;;;;;;;4992377;28;20413;-82
2022/03/15 00:02:46;;;;;;;20.90;7.30;;;;;;;;;;4984208;28;20497;-82
2022/03/15 00:05:12;;;;;;;27.30;8.20;;;;;;;;;;5002481;28;20436;-82
2022/03/15 00:07:38;;;;;;;38.10;8.43;;;;;;;;;;5000490;28;20026;-83
2022/03/15 00:10:05;;;;;;;29.75;9.13;;;;;;;;;;5003955;28;20092;-82
2022/03/15 00:12:32;;;;;;;23.17;8.20;;;;;;;;;;5004896;28;20120;-82
2022/03/15 00:14:58;;;;;;;33.58;9.00;;;;;;;;;;4988322;28;20794;-83
2022/03/15 00:17:24;;;;;;;34.22;9.25;;;;;;;;;;5004967;28;20504;-83
2022/03/15 00:19:51;;;;;;;35.50;9.68;;;;;;;;;;4996903;28;20083;-82
2022/03/15 00:22:17;;;;;;;30.10;9.55;;;;;;;;;;4995053;28;20060;-82
2022/03/15 00:24:43;;;;;;;36.13;9.82;;;;;;;;;;4999940;28;20041;-82
2022/03/15 00:27:14;;;;;;;27.70;9.68;;;;;;;;;;4988805;28;20038;-83
2022/03/15 00:29:41;;;;;;;29.35;9.10;;;;;;;;;;4999412;28;20510;-82
2022/03/15 00:32:08;;;;;;;17.83;8.52;;;;;;;;;;4998405;28;20049;-82
2022/03/15 00:34:34;;;;;;;25.20;9.20;;;;;;;;;;5003087;28;20113;-82
2022/03/15 00:37:00;;;;;;;33.65;8.82;;;;;;;;;;4983347;28;20482;-82
2022/03/15 00:39:26;;;;;;;26.52;9.38;;;;;;;;;;4965048;28;20034;-82
2022/03/15 00:41:52;;;;;;;19.75;8.65;;;;;;;;;;4967479;28;20627;-83
2022/03/15 00:44:19;;;;;;;23.75;8.68;;;;;;;;;;4976286;28;20533;-83
2022/03/15 00:46:45;;;;;;;23.25;7.97;;;;;;;;;;4982497;28;20019;-82
2022/03/15 00:49:11;;;;;;;19.38;7.57;;;;;;;;;;4961680;28;20049;-83
2022/03/15 00:51:37;;;;;;;19.77;8.13;;;;;;;;;;4961028;28;20393;-83
2022/03/15 00:54:03;;;;;;;24.92;8.02;;;;;;;;;;4979824;28;20896;-82
2022/03/15 00:56:29;;;;;;;21.52;8.10;;;;;;;;;;4980916;28;20042;-82
2022/03/15 00:58:55;;;;;;;22.80;8.02;;;;;;;;;;4982732;28;20034;-82
2022/03/15 01:01:21;;;;;;;20.63;8.95;;;;;;;;;;4983066;28;20164;-82
2022/03/15 01:03:48;;;;;;;24.50;8.73;;;;;;;;;;4967218;28;20701;-82
2022/03/15 01:06:14;;;;;;;40.85;9.07;;;;;;;;;;4982160;28;20045;-82
2022/03/15 01:08:40;;;;;;;23.38;8.93;;;;;;;;;;4980502;28;20025;-82
2022/03/15 01:11:06;;;;;;;28.13;8.02;;;;;;;;;;4964663;28;20030;-82
2022/03/15 01:13:32;;;;;;;28.40;9.00;;;;;;;;;;4982235;28;20512;-82
2022/03/15 01:15:59;;;;;;;33.80;9.40;;;;;;;;;;4979071;28;20030;-82
2022/03/15 01:18:25;;;;;;;28.35;9.93;;;;;;;;;;4981633;28;20466;-82
2022/03/15 01:20:51;;;;;;;19.38;8.60;;;;;;;;;;4965803;28;21332;-82
2022/03/15 01:23:18;;;;;;;31.52;9.50;;;;;;;;;;4982883;28;20470;-82
2022/03/15 01:25:44;;;;;;;22.50;8.43;;;;;;;;;;4959840;28;20062;-82
2022/03/15 01:28:10;;;;;;;21.27;7.60;;;;;;;;;;4978214;28;20031;-82
2022/03/15 01:30:36;;;;;;;17.88;8.18;;;;;;;;;;4978987;28;20038;-83
2022/03/15 01:33:03;;;;;;;29.45;8.38;;;;;;;;;;4962607;28;20162;-82
2022/03/15 01:35:29;;;;;;;18.13;7.82;;;;;;;;;;4976371;28;20041;-83
2022/03/15 01:37:55;;;;;;;20.05;8.65;;;;;;;;;;4968695;28;20529;-82
2022/03/15 01:40:21;;;;;;;22.50;8.13;;;;;;;;;;4997633;28;20027;-82
2022/03/15 01:42:47;;;;;;;23.00;7.93;;;;;;;;;;4999205;28;20033;-82
2022/03/15 01:45:13;;;;;;;28.63;9.27;;;;;;;;;;4976930;28;20033;-82
2022/03/15 01:47:39;;;;;;;31.67;9.70;;;;;;;;;;4997512;28;20524;-83
2022/03/15 01:50:07;;;;;;;25.65;8.93;;;;;;;;;;4984873;28;20072;-83
2022/03/15 01:52:33;;;;;;;19.85;7.65;;;;;;;;;;4978764;28;20026;-82
2022/03/15 01:54:59;;;;;;;25.85;8.10;;;;;;;;;;4983161;28;20080;-82
2022/03/15 01:57:25;;;;;;;29.55;8.82;;;;;;;;;;5004329;28;20460;-82
2022/03/15 01:59:51;;;;;;;33.47;9.00;;;;;;;;;;4978230;28;20092;-83
2022/03/15 02:02:18;;;;;;;33.90;8.95;;;;;;;;;;4984947;28;20117;-83
2022/03/15 02:04:44;;;;;;;29.88;9.27;;;;;;;;;;4994548;28;20145;-82
2022/03/15 02:07:14;;;;;;;37.25;9.75;;;;;;;;;;4984605;28;20116;-83
2022/03/15 02:09:40;;;;;;;31.63;9.25;;;;;;;;;;5001129;28;20033;-82
2022/03/15 02:12:07;;;;;;;23.70;9.10;;;;;;;;;;4999981;28;20026;-82
2022/03/15 02:14:34;;;;;;;35.95;10.00;;;;;;;;;;4984589;28;20030;-83
2022/03/15 02:17:00;;;;;;;37.95;10.40;;;;;;;;;;4981079;28;20115;-82
2022/03/15 02:19:27;;;;;;;32.15;10.40;;;;;;;;;;4992108;28;20378;-82
2022/03/15 02:21:57;;;;;;;39.10;12.35;;;;;;;;;;4994061;28;20032;-83
2022/03/15 02:24:23;;;;;;;26.95;10.80;;;;;;;;;;4992621;28;20029;-82
2022/03/15 02:26:51;;;;;;;37.30;12.45;;;;;;;;;;4990697;28;20410;-83
2022/03/15 02:29:17;;;;;;;25.65;10.43;;;;;;;;;;4980899;28;20034;-82
2022/03/15 02:31:44;;;;;;;28.20;10.23;;;;;;;;;;4997182;28;20047;-83
2022/03/15 02:34:10;;;;;;;22.38;10.27;;;;;;;;;;4999127;28;20129;-82
2022/03/15 02:36:36;;;;;;;30.90;10.95;;;;;;;;;;4995186;28;20041;-83
2022/03/15 02:39:03;;;;;;;28.85;11.70;;;;;;;;;;4977180;28;20666;-82
2022/03/15 02:41:29;;;;;;;30.13;12.20;;;;;;;;;;4972706;28;20058;-83
2022/03/15 02:43:58;;;;;;;34.15;13.52;;;;;;;;;;4980345;28;20033;-83
2022/03/15 02:46:34;;;;;;;40.65;13.73;;;;;;;;;;4976745;28;20042;-82
2022/03/15 02:49:00;;;;;;;36.83;13.75;;;;;;;;;;4961273;28;20109;-82
2022/03/15 02:51:26;;;;;;;38.63;13.55;;;;;;;;;;4960906;28;20113;-83
2022/03/15 02:53:56;;;;;;;41.03;14.20;;;;;;;;;;4974931;28;20499;-82
2022/03/15 02:56:23;;;;;;;31.88;13.00;;;;;;;;;;4959072;28;20097;-82
2022/03/15 02:58:56;;;;;;;32.63;14.65;;;;;;;;;;4975990;28;20034;-82
2022/03/15 03:01:23;;;;;;;39.35;13.98;;;;;;;;;;4978831;28;20058;-82
2022/03/15 03:03:49;;;;;;;39.45;14.13;;;;;;;;;;4960579;28;20023;-82
2022/03/15 03:06:15;;;;;;;33.88;15.13;;;;;;;;;;4981289;28;20556;-82
2022/03/15 03:08:41;;;;;;;49.55;14.48;;;;;;;;;;4978851;28;20062;-82
2022/03/15 03:11:07;;;;;;;38.85;14.75;;;;;;;;;;4980408;28;20386;-83
2022/03/15 03:13:47;;;;;;;54.47;13.88;;;;;;;;;;4984046;28;20605;-82
2022/03/15 03:16:15;;;;;;;41.70;14.40;;;;;;;;;;4985036;28;20031;-83
2022/03/15 03:18:41;;;;;;;43.58;15.70;;;;;;;;;;4968142;28;20428;-82
2022/03/15 03:21:07;;;;;;;37.55;16.05;;;;;;;;;;4966719;28;20116;-83
2022/03/15 03:23:35;;;;;;;44.42;15.75;;;;;;;;;;4966724;28;20030;-83
2022/03/15 03:26:01;;;;;;;43.90;16.02;;;;;;;;;;4962622;28;20759;-82
2022/03/15 03:28:33;;;;;;;43.72;15.98;;;;;;;;;;4982587;28;20026;-83
2022/03/15 03:31:00;;;;;;;50.95;16.00;;;;;;;;;;4963658;28;20521;-82
2022/03/15 03:33:26;;;;;;;42.53;16.67;;;;;;;;;;4964229;28;20113;-82
2022/03/15 03:35:53;;;;;;;40.92;15.93;;;;;;;;;;4983734;28;20037;-82
2022/03/15 03:38:19;;;;;;;45.42;16.83;;;;;;;;;;4993942;28;20061;-82
2022/03/15 03:40:45;;;;;;;37.65;16.70;;;;;;;;;;4998109;28;20038;-83
2022/03/15 03:43:11;;;;;;;49.53;17.33;;;;;;;;;;5003736;28;20037;-82
2022/03/15 03:45:37;;;;;;;47.60;15.82;;;;;;;;;;4984871;28;20042;-82
2022/03/15 03:48:05;;;;;;;44.15;15.93;;;;;;;;;;4983738;28;20021;-82
2022/03/15 03:50:32;;;;;;;46.53;16.67;;;;;;;;;;5003917;28;20073;-82
2022/03/15 03:52:58;;;;;;;32.85;15.02;;;;;;;;;;4983552;28;20030;-82
2022/03/15 03:55:24;;;;;;;38.90;15.45;;;;;;;;;;5000059;28;20030;-82
2022/03/15 03:57:50;;;;;;;40.83;13.75;;;;;;;;;;4979935;28;20054;-82
2022/03/15 04:00:16;;;;;;;39.92;14.18;;;;;;;;;;4985012;28;20034;-82
2022/03/15 04:02:43;;;;;;;35.67;13.52;;;;;;;;;;4995413;28;20026;-82
2022/03/15 04:05:16;;;;;;;35.45;15.85;;;;;;;;;;5001815;28;20026;-83
2022/03/15 04:07:43;;;;;;;38.40;13.93;;;;;;;;;;4986254;28;20033;-83
2022/03/15 04:10:09;;;;;;;34.42;12.88;;;;;;;;;;5000211;28;20023;-83
2022/03/15 04:12:36;;;;;;;34.88;14.90;;;;;;;;;;5004567;28;20029;-82
2022/03/15 04:15:03;;;;;;;42.75;14.60;;;;;;;;;;4997331;28;20057;-82
2022/03/15 04:17:30;;;;;;;34.78;13.73;;;;;;;;;;4980793;28;20085;-83
2022/03/15 04:19:56;;;;;;;39.33;13.48;;;;;;;;;;4991939;28;20031;-83
2022/03/15 04:22:22;;;;;;;33.33;13.73;;;;;;;;;;4984091;28;20708;-83
2022/03/15 04:24:48;;;;;;;42.80;14.38;;;;;;;;;;5003426;28;20160;-82
2022/03/15 04:27:15;;;;;;;33.97;13.88;;;;;;;;;;4982477;28;20032;-82
2022/03/15 04:29:41;;;;;;;43.00;15.70;;;;;;;;;;4994676;28;20034;-82
2022/03/15 04:32:07;;;;;;;47.55;15.82;;;;;;;;;;4989697;28;20080;-82
2022/03/15 04:34:34;;;;;;;42.20;15.10;;;;;;;;;;4978771;28;20030;-83
2022/03/15 04:37:00;;;;;;;30.25;13.25;;;;;;;;;;5002842;28;20026;-82
2022/03/15 04:39:26;;;;;;;37.60;14.43;;;;;;;;;;4997611;28;20033;-83
2022/03/15 04:41:52;;;;;;;38.70;14.82;;;;;;;;;;5001244;28;20030;-83
2022/03/15 04:44:18;;;;;;;37.20;15.07;;;;;;;;;;4994248;28;20038;-82
2022/03/15 04:46:44;;;;;;;41.47;15.35;;;;;;;;;;4982268;28;20526;-82
2022/03/15 04:49:11;;;;;;;45.80;16.05;;;;;;;;;;4983430;28;20029;-82
2022/03/15 04:51:38;;;;;;;35.58;14.55;;;;;;;;;;5001895;28;20518;-82
2022/03/15 04:54:04;;;;;;;39.40;15.18;;;;;;;;;;4981605;28;20026;-82
2022/03/15 04:56:30;;;;;;;40.00;15.65;;;;;;;;;;4985345;28;20062;-83
2022/03/15 04:58:56;;;;;;;43.63;16.27;;;;;;;;;;4982502;28;20034;-83
2022/03/15 05:01:22;;;;;;;34.70;14.90;;;;;;;;;;4983832;28;20103;-83
2022/03/15 05:03:48;;;;;;;47.95;14.27;;;;;;;;;;4984323;28;20606;-82
2022/03/15 05:06:14;;;;;;;40.22;15.05;;;;;;;;;;4987137;28;20041;-82
2022/03/15 05:08:40;;;;;;;35.40;14.40;;;;;;;;;;4986308;28;20060;-82
2022/03/15 05:11:06;;;;;;;43.08;15.52;;;;;;;;;;4986630;28;20034;-82
2022/03/15 05:13:47;;;;;;;40.13;14.45;;;;;;;;;;5002070;28;20525;-82
2022/03/15 05:16:18;;;;;;;36.42;13.52;;;;;;;;;;4983511;28;20030;-82
2022/03/15 05:18:45;;;;;;;39.70;14.05;;;;;;;;;;4983563;28;20037;-82
2022/03/15 05:21:16;;;;;;;37.47;15.30;;;;;;;;;;5001932;28;20667;-82
2022/03/15 05:23:47;;;;;;;36.58;14.02;;;;;;;;;;4981132;28;20069;-82
2022/03/15 05:26:14;;;;;;;46.58;15.80;;;;;;;;;;4986688;28;20034;-82
2022/03/15 05:28:40;;;;;;;41.00;13.95;;;;;;;;;;4997788;28;20030;-82
2022/03/15 05:31:06;;;;;;;42.17;15.10;;;;;;;;;;4998536;28;20030;-82
2022/03/15 05:33:33;;;;;;;38.15;14.35;;;;;;;;;;4998448;28;20076;-82
2022/03/15 05:35:59;;;;;;;47.47;14.75;;;;;;;;;;4983527;28;20042;-82
2022/03/15 05:38:25;;;;;;;45.28;14.70;;;;;;;;;;4994468;28;20044;-83
2022/03/15 05:40:51;;;;;;;40.47;14.35;;;;;;;;;;4994857;28;20108;-82
2022/03/15 05:43:19;;;;;;;39.75;14.48;;;;;;;;;;4985564;28;20037;-83
2022/03/15 05:45:45;;;;;;;36.90;14.52;;;;;;;;;;5001864;28;20045;-83
2022/03/15 05:48:11;;;;;;;40.83;14.20;;;;;;;;;;4985060;28;20030;-82
2022/03/15 05:50:37;;;;;;;39.40;13.02;;;;;;;;;;4981930;28;20057;-82
2022/03/15 05:53:04;;;;;;;36.15;14.05;;;;;;;;;;4997751;28;20779;-82
2022/03/15 05:55:34;;;;;;;44.50;15.43;;;;;;;;;;4999127;28;20038;-83
2022/03/15 05:58:00;;;;;;;49.42;14.52;;;;;;;;;;4980496;28;20120;-83
2022/03/15 06:00:27;;;;;;;38.80;14.77;;;;;;;;;;4996578;28;20118;-82
2022/03/15 06:02:53;;;;;;;43.92;15.40;;;;;;;;;;4998863;28;20108;-82
2022/03/15 06:05:19;;;;;;;42.60;16.20;;;;;;;;;;5000708;28;20092;-82
2022/03/15 06:07:45;;;;;;;55.42;16.20;;;;;;;;;;4983489;28;20030;-83
2022/03/15 06:10:12;;;;;;;49.33;16.00;;;;;;;;;;4983182;28;20023;-82
2022/03/15 06:12:38;;;;;;;38.58;15.57;;;;;;;;;;4999218;28;20030;-82
2022/03/15 06:15:04;;;;;;;41.30;16.73;;;;;;;;;;4994126;28;20033;-82
2022/03/15 06:17:32;;;;;;;47.85;14.85;;;;;;;;;;4993405;28;20034;-83
2022/03/15 06:19:58;;;;;;;51.72;17.02;;;;;;;;;;4998774;28;20021;-82
2022/03/15 06:22:24;;;;;;;45.08;15.93;;;;;;;;;;4983834;28;20150;-83
2022/03/15 06:24:50;;;;;;;39.38;16.17;;;;;;;;;;4996424;28;20612;-83
2022/03/15 06:27:16;;;;;;;40.00;16.30;;;;;;;;;;4982473;28;20138;-82
2022/03/15 06:29:42;;;;;;;46.25;16.27;;;;;;;;;;4980893;28;20045;-83
2022/03/15 06:32:09;;;;;;;51.83;18.02;;;;;;;;;;4981503;28;20083;-82
2022/03/15 06:34:35;;;;;;;41.75;17.17;;;;;;;;;;5000215;28;20033;-83
2022/03/15 06:37:01;;;;;;;57.45;18.10;;;;;;;;;;4998982;28;20021;-83
2022/03/15 06:39:27;;;;;;;50.05;17.35;;;;;;;;;;4971307;28;20133;-82
2022/03/15 06:41:53;;;;;;;43.05;17.02;;;;;;;;;;4981020;28;20030;-83
2022/03/15 06:44:19;;;;;;;43.35;16.45;;;;;;;;;;4977966;28;20065;-82
2022/03/15 06:46:45;;;;;;;47.67;18.38;;;;;;;;;;4964997;28;20034;-83
2022/03/15 06:49:11;;;;;;;57.30;18.27;;;;;;;;;;4958900;28;20030;-83
2022/03/15 06:51:37;;;;;;;42.53;17.27;;;;;;;;;;4981840;28;20034;-83
2022/03/15 06:54:03;;;;;;;44.33;17.60;;;;;;;;;;4981197;28;20038;-82
2022/03/15 06:56:29;;;;;;;50.47;17.00;;;;;;;;;;4980377;28;20031;-83
2022/03/15 06:58:56;;;;;;;36.33;15.23;;;;;;;;;;4965609;28;20054;-83
2022/03/15 07:01:22;;;;;;;53.25;17.70;;;;;;;;;;4982157;28;20099;-83
2022/03/15 07:03:49;;;;;;;38.70;16.10;;;;;;;;;;4960186;28;20038;-82
2022/03/15 07:06:15;;;;;;;38.55;16.42;;;;;;;;;;4964523;28;20383;-83
2022/03/15 07:08:41;;;;;;;32.17;14.40;;;;;;;;;;4976804;28;20585;-83
2022/03/15 07:11:07;;;;;;;40.95;16.20;;;;;;;;;;4977001;28;20090;-83
2022/03/15 07:13:33;;;;;;;34.25;14.88;;;;;;;;;;4963302;28;20027;-83
2022/03/15 07:15:59;;;;;;;48.17;15.25;;;;;;;;;;4965482;28;20508;-82
2022/03/15 07:18:25;;;;;;;38.83;15.65;;;;;;;;;;4961215;28;20042;-83
2022/03/15 07:20:51;;;;;;;48.78;16.38;;;;;;;;;;4978233;28;20093;-83
2022/03/15 07:23:17;;;;;;;30.08;14.40;;;;;;;;;;4964358;28;20030;-83
2022/03/15 07:25:43;;;;;;;39.42;15.57;;;;;;;;;;4976754;28;20438;-83
2022/03/15 07:28:09;;;;;;;34.00;14.40;;;;;;;;;;4958158;28;20030;-83
2022/03/15 07:30:35;;;;;;;40.13;14.85;;;;;;;;;;4959693;28;20043;-82
2022/03/15 07:33:01;;;;;;;34.60;15.18;;;;;;;;;;4958859;28;20099;-82
2022/03/15 07:35:28;;;;;;;35.63;14.90;;;;;;;;;;4978400;28;20023;-83
2022/03/15 07:37:59;;;;;;;39.80;15.45;;;;;;;;;;4983278;28;20466;-83
2022/03/15 07:40:26;;;;;;;31.02;13.60;;;;;;;;;;4982381;28;20030;-83
2022/03/15 07:42:52;;;;;;;36.22;14.65;;;;;;;;;;4982638;28;20444;-83
2022/03/15 07:45:19;;;;;;;37.45;16.33;;;;;;;;;;4998489;28;20385;-83
2022/03/15 07:47:47;;;;;;;37.85;15.27;;;;;;;;;;4990781;28;20551;-83
2022/03/15 07:50:13;;;;;;;33.88;14.82;;;;;;;;;;4981729;28;21267;-83
2022/03/15 07:52:39;;;;;;;42.10;16.23;;;;;;;;;;4980507;28;20034;-83
2022/03/15 07:55:05;;;;;;;41.80;16.17;;;;;;;;;;4985584;28;20030;-83
2022/03/15 07:57:31;;;;;;;48.00;16.85;;;;;;;;;;4986715;28;20034;-83
2022/03/15 07:59:57;;;;;;;41.95;17.67;;;;;;;;;;4984927;28;20153;-83
2022/03/15 08:02:24;;;;;;;38.58;15.88;;;;;;;;;;4987805;28;20069;-83
2022/03/15 08:04:50;;;;;;;36.78;16.80;;;;;;;;;;4980055;28;20394;-83
2022/03/15 08:07:16;;;;;;;42.05;16.08;;;;;;;;;;4981979;28;20401;-83
2022/03/15 08:09:42;;;;;;;43.05;17.52;;;;;;;;;;4981881;28;20442;-83
2022/03/15 08:12:08;;;;;;;43.97;17.55;;;;;;;;;;4982568;28;20026;-83
2022/03/15 08:14:41;;;;;;;51.03;19.08;;;;;;;;;;4998321;28;20034;-82
2022/03/15 08:17:07;;;;;;;44.70;18.95;;;;;;;;;;5001599;28;20616;-83
2022/03/15 08:19:33;;;;;;;45.53;17.77;;;;;;;;;;4983122;28;20037;-83
2022/03/15 08:22:02;;;;;;;39.10;18.25;;;;;;;;;;4989823;28;20470;-83
2022/03/15 08:24:28;;;;;;;49.50;18.85;;;;;;;;;;4983241;28;20033;-83
2022/03/15 08:26:55;;;;;;;45.53;20.42;;;;;;;;;;4987139;28;20059;-83
2022/03/15 08:29:21;;;;;;;41.85;18.38;;;;;;;;;;4985730;28;20029;-83
2022/03/15 08:31:47;;;;;;;45.35;19.20;;;;;;;;;;4982063;28;20034;-83
2022/03/15 08:34:13;;;;;;;45.88;19.70;;;;;;;;;;5000133;28;20037;-83
2022/03/15 08:36:39;;;;;;;55.95;19.88;;;;;;;;;;4982788;28;20026;-83
2022/03/15 08:39:05;;;;;;;43.75;19.60;;;;;;;;;;4970469;28;20463;-83
2022/03/15 08:41:31;;;;;;;48.00;19.98;;;;;;;;;;4980011;28;20022;-83
2022/03/15 08:43:57;;;;;;;50.97;20.17;;;;;;;;;;4961095;28;20150;-83
2022/03/15 08:46:23;;;;;;;53.92;20.27;;;;;;;;;;4964534;28;20042;-83
2022/03/15 08:48:49;;;;;;;40.95;20.35;;;;;;;;;;4980412;28;20125;-83
2022/03/15 08:51:16;;;;;;;49.78;20.95;;;;;;;;;;4965412;28;20814;-83
2022/03/15 08:53:42;;;;;;;55.22;20.35;;;;;;;;;;4964623;28;20502;-83
2022/03/15 08:56:08;;;;;;;51.00;20.85;;;;;;;;;;4967670;28;20035;-83
2022/03/15 08:58:34;;;;;;;47.78;21.50;;;;;;;;;;4979409;28;20030;-83
2022/03/15 09:01:00;;;;;;;47.47;21.63;;;;;;;;;;4964494;28;20726;-83
2022/03/15 09:03:26;;;;;;;43.75;21.50;;;;;;;;;;4978512;28;20051;-83
2022/03/15 09:05:52;;;;;;;54.90;23.05;;;;;;;;;;4961887;28;20034;-83
2022/03/15 09:08:18;;;;;;;49.42;20.73;;;;;;;;;;4963212;28;20064;-83
2022/03/15 09:10:45;;;;;;;50.17;21.67;;;;;;;;;;4964502;28;20050;-83
2022/03/15 09:13:11;;;;;;;48.50;23.92;;;;;;;;;;4978044;28;20038;-83
2022/03/15 09:15:37;;;;;;;46.45;21.55;;;;;;;;;;4962800;28;20035;-83
2022/03/15 09:18:03;;;;;;;48.90;21.85;;;;;;;;;;4977902;28;20030;-83
2022/03/15 09:20:30;;;;;;;53.10;21.27;;;;;;;;;;4965213;28;20514;-83
2022/03/15 09:22:56;;;;;;;42.60;20.33;;;;;;;;;;4978008;28;20024;-83
2022/03/15 09:25:32;;;;;;;46.17;20.95;;;;;;;;;;4979813;28;20309;-83
2022/03/15 09:27:58;;;;;;;46.10;21.98;;;;;;;;;;4959046;28;20034;-83
2022/03/15 09:30:24;;;;;;;47.65;19.85;;;;;;;;;;4961929;28;20684;-83
2022/03/15 09:32:50;;;;;;;37.95;19.30;;;;;;;;;;4973896;28;20163;-83
2022/03/15 09:35:17;;;;;;;43.30;19.92;;;;;;;;;;4966287;28;20030;-83
2022/03/15 09:37:57;;;;;;;50.63;21.52;;;;;;;;;;4977043;28;20522;-83
2022/03/15 09:40:25;;;;;;;49.20;21.52;;;;;;;;;;4982186;28;20190;-83
2022/03/15 09:42:54;;;;;;;47.38;20.33;;;;;;;;;;4998374;28;20058;-83
2022/03/15 09:45:22;;;;;;;46.03;20.38;;;;;;;;;;4997191;28;20333;-83
2022/03/15 09:47:51;;;;;;;50.75;20.45;;;;;;;;;;4999161;28;20042;-83
2022/03/15 09:50:18;;;;;;;41.33;19.98;;;;;;;;;;4995494;28;20505;-83
2022/03/15 09:52:44;;;;;;;45.20;21.35;;;;;;;;;;4996181;28;20060;-83
2022/03/15 09:55:11;;;;;;;48.88;22.27;;;;;;;;;;4993288;28;20046;-83
2022/03/15 09:57:38;;;;;;;46.03;21.33;;;;;;;;;;4981023;28;20038;-83
2022/03/15 10:00:05;;;;;;;38.65;20.45;;;;;;;;;;4985671;28;20045;-83
2022/03/15 10:02:31;;;;;;;40.78;20.00;;;;;;;;;;5003019;28;20525;-83
2022/03/15 10:04:57;;;;;;;45.28;19.92;;;;;;;;;;4985356;28;20038;-83
2022/03/15 10:07:23;;;;;;;46.58;18.27;;;;;;;;;;4984689;28;20034;-83
2022/03/15 10:09:51;;;;;;;42.20;18.65;;;;;;;;;;5001351;28;20084;-83
2022/03/15 10:12:18;;;;;;;38.38;17.73;;;;;;;;;;4977934;28;20036;-83
2022/03/15 10:14:45;;;;;;;39.15;18.67;;;;;;;;;;4997268;28;20030;-83
2022/03/15 10:17:14;;;;;;;38.42;17.98;;;;;;;;;;4983403;28;20037;-83
2022/03/15 10:19:50;;;;;;;36.30;18.38;;;;;;;;;;4980799;28;20046;-83
2022/03/15 10:22:23;;;;;;;36.30;17.77;;;;;;;;;;4997181;28;20819;-83
2022/03/15 10:24:49;;;;;;;46.60;21.92;;;;;;;;;;4997670;28;20497;-83
2022/03/15 10:27:15;;;;;;;37.35;18.50;;;;;;;;;;4996498;28;20529;-83
2022/03/15 10:29:46;;;;;;;40.03;20.05;;;;;;;;;;4979913;28;20026;-83
2022/03/15 10:32:13;;;;;;;35.63;19.05;;;;;;;;;;4997872;28;20109;-83
2022/03/15 10:34:39;;;;;;;40.67;20.17;;;;;;;;;;4998040;28;20061;-83
2022/03/15 10:37:05;;;;;;;36.42;18.70;;;;;;;;;;4983282;28;20037;-83
2022/03/15 10:39:32;;;;;;;36.58;17.92;;;;;;;;;;4999049;28;20080;-84
2022/03/15 10:42:00;;;;;;;37.55;18.70;;;;;;;;;;4983963;28;20077;-82
2022/03/15 10:44:26;;;;;;;37.80;18.92;;;;;;;;;;4998360;28;20061;-83
2022/03/15 10:47:08;;;;;;;38.58;18.38;;;;;;;;;;4997343;28;20041;-83
2022/03/15 10:50:03;;;;;;;37.53;17.52;;;;;;;;;;4996392;28;20124;-82
2022/03/15 10:52:33;;;;;;;41.13;19.27;;;;;;;;;;4997227;28;20665;-83
2022/03/15 10:55:10;;;;;;;39.25;18.73;;;;;;;;;;4976622;28;20035;-84
2022/03/15 10:57:52;;;;;;;35.42;19.58;;;;;;;;;;5000320;28;20033;-83
2022/03/15 11:00:19;;;;;;;34.83;18.83;;;;;;;;;;4996115;28;20025;-83
2022/03/15 11:02:46;;;;;;;32.90;17.98;;;;;;;;;;4999337;28;20042;-83
2022/03/15 11:05:12;;;;;;;33.67;17.70;;;;;;;;;;4993249;28;20116;-83
2022/03/15 11:07:42;;;;;;;37.90;18.70;;;;;;;;;;5001533;28;20119;-84
2022/03/15 11:10:13;;;;;;;37.45;19.05;;;;;;;;;;5001239;28;20052;-83
2022/03/15 11:12:53;;;;;;;37.15;20.00;;;;;;;;;;4997072;28;20117;-83
2022/03/15 11:15:20;;;;;;;34.63;17.08;;;;;;;;;;5000429;28;20030;-82
2022/03/15 11:17:47;;;;;;;33.67;18.27;;;;;;;;;;4997025;28;20101;-83
2022/03/15 11:20:15;;;;;;;39.33;18.95;;;;;;;;;;4980454;28;20196;-83
2022/03/15 11:22:42;;;;;;;41.30;19.23;;;;;;;;;;4978910;28;20072;-83
2022/03/15 11:25:17;;;;;;;39.72;19.05;;;;;;;;;;4980577;28;20100;-83
2022/03/15 11:27:44;;;;;;;45.40;19.20;;;;;;;;;;4983844;28;20737;-83
2022/03/15 11:30:15;;;;;;;47.03;21.17;;;;;;;;;;4993987;28;20547;-83
2022/03/15 11:32:41;;;;;;;33.60;19.25;;;;;;;;;;4997559;28;20041;-83
2022/03/15 11:35:08;;;;;;;43.42;20.55;;;;;;;;;;5001266;28;20065;-83
2022/03/15 11:37:35;;;;;;;45.97;20.45;;;;;;;;;;4986536;28;20033;-84
2022/03/15 11:40:03;;;;;;;45.47;22.13;;;;;;;;;;5003670;28;20062;-84
2022/03/15 11:42:32;;;;;;;51.45;21.73;;;;;;;;;;4978974;28;20040;-84
2022/03/15 11:44:58;;;;;;;45.67;20.80;;;;;;;;;;4992657;28;20038;-84
2022/03/15 11:47:24;;;;;;;38.70;19.23;;;;;;;;;;4993767;28;20433;-84
2022/03/15 11:49:59;;;;;;;42.47;17.83;;;;;;;;;;4988645;28;20048;-84
2022/03/15 11:52:54;;;;;;;35.15;16.77;;;;;;;;;;5001881;28;20030;-82
2022/03/15 11:55:25;;;;;;;42.88;18.88;;;;;;;;;;4940002;28;20077;-83
2022/03/15 11:57:52;;;;;;;44.33;18.80;;;;;;;;;;4981283;28;20046;-83
2022/03/15 12:00:50;;;;;;;44.95;19.95;;;;;;;;;;4986604;28;20433;-82
2022/03/15 12:03:18;;;;;;;35.58;16.88;;;;;;;;;;5000857;28;20058;-81
2022/03/15 12:05:52;;;;;;;31.17;13.85;;;;;;;;;;5003946;28;20030;-80
2022/03/15 12:08:28;;;;;;;43.85;16.30;;;;;;;;;;4983264;28;20026;-81
2022/03/15 12:10:58;;;;;;;33.90;15.60;;;;;;;;;;5006601;28;20044;-81
2022/03/15 12:13:33;;;;;;;35.13;16.38;;;;;;;;;;4996350;28;20216;-81
2022/03/15 12:16:14;;;;;;;32.50;14.23;;;;;;;;;;4987623;28;20045;-81
2022/03/15 12:18:50;;;;;;;31.15;15.02;;;;;;;;;;4991095;28;20041;-81
2022/03/15 12:21:16;;;;;;;37.13;14.93;;;;;;;;;;4982650;28;20044;-81
2022/03/15 12:23:43;;;;;;;31.60;15.13;;;;;;;;;;5000620;28;20495;-81
2022/03/15 12:26:18;;;;;;;33.67;14.18;;;;;;;;;;4996228;28;20114;-81
2022/03/15 12:28:54;;;;;;;36.95;15.23;;;;;;;;;;4981501;28;20569;-80
2022/03/15 12:31:20;;;;;;;40.22;16.10;;;;;;;;;;4985425;28;20446;-81
2022/03/15 12:34:00;;;;;;;35.85;14.68;;;;;;;;;;4999656;28;20486;-81
2022/03/15 12:36:35;;;;;;;28.85;13.52;;;;;;;;;;4982909;28;20052;-81
2022/03/15 12:39:09;;;;;;;40.67;15.23;;;;;;;;;;4988427;28;20387;-80
2022/03/15 12:41:35;;;;;;;38.03;14.10;;;;;;;;;;5002119;28;20025;-82
2022/03/15 12:44:01;;;;;;;33.10;14.35;;;;;;;;;;4979526;28;20037;-81
2022/03/15 12:46:30;;;;;;;35.70;15.55;;;;;;;;;;5001717;28;20041;-81
2022/03/15 12:48:57;;;;;;;33.25;13.75;;;;;;;;;;4987908;28;20026;-81
2022/03/15 12:51:23;;;;;;;27.38;13.30;;;;;;;;;;5000709;28;20028;-81
2022/03/15 12:53:49;;;;;;;29.05;13.32;;;;;;;;;;5001918;28;20034;-81
2022/03/15 12:56:15;;;;;;;21.17;11.23;;;;;;;;;;4989947;28;20081;-81
2022/03/15 12:58:42;;;;;;;29.50;11.43;;;;;;;;;;4982915;28;20121;-81
2022/03/15 13:01:09;;;;;;;23.48;10.68;;;;;;;;;;4982472;28;20038;-81
2022/03/15 13:03:38;;;;;;;21.48;10.77;;;;;;;;;;4978720;28;20099;-81
2022/03/15 13:06:04;;;;;;;24.23;10.60;;;;;;;;;;4982525;28;20729;-81
2022/03/15 13:08:32;;;;;;;22.40;10.50;;;;;;;;;;4998651;28;20122;-81
2022/03/15 13:11:03;;;;;;;23.27;9.75;;;;;;;;;;4980941;28;20041;-81
2022/03/15 13:13:29;;;;;;;16.80;8.40;;;;;;;;;;5001848;28;20052;-81
2022/03/15 13:16:09;;;;;;;20.50;10.20;;;;;;;;;;4981514;28;20042;-82
2022/03/15 13:18:36;;;;;;;12.95;8.23;;;;;;;;;;4996510;28;20120;-82
2022/03/15 13:21:06;;;;;;;15.77;8.23;;;;;;;;;;4978554;28;20511;-81
2022/03/15 13:23:33;;;;;;;18.42;8.23;;;;;;;;;;4977877;28;20046;-81
2022/03/15 13:26:11;;;;;;;24.27;8.80;;;;;;;;;;4979098;28;20045;-82
2022/03/15 13:28:50;;;;;;;22.45;6.57;;;;;;;;;;4981591;28;20037;-81
2022/03/15 13:31:17;;;;;;;23.90;7.38;;;;;;;;;;4979135;28;20672;-81
2022/03/15 13:33:50;;;;;;;13.70;7.05;;;;;;;;;;5005423;28;20028;-81
2022/03/15 13:36:34;;;;;;;23.15;10.48;;;;;;;;;;4982559;28;20461;-81
2022/03/15 13:39:05;;;;;;;15.75;7.35;;;;;;;;;;4984788;28;20117;-82
2022/03/15 13:41:38;;;;;;;13.57;7.30;;;;;;;;;;4997474;28;20030;-81
2022/03/15 13:44:06;;;;;;;16.40;6.25;;;;;;;;;;4998027;28;21264;-81
2022/03/15 13:46:34;;;;;;;17.67;8.52;;;;;;;;;;5002217;28;20481;-81
2022/03/15 13:49:00;;;;;;;19.48;8.32;;;;;;;;;;4979992;28;21107;-81
2022/03/15 13:51:32;;;;;;;22.85;8.95;;;;;;;;;;4981438;28;20030;-81
2022/03/15 13:54:12;;;;;;;17.67;8.48;;;;;;;;;;4993964;28;20037;-81
2022/03/15 13:56:40;;;;;;;17.13;8.25;;;;;;;;;;4979294;28;20026;-81
2022/03/15 13:59:08;;;;;;;19.88;9.27;;;;;;;;;;4981183;28;20061;-81
2022/03/15 14:01:35;;;;;;;12.40;5.72;;;;;;;;;;4978974;28;20031;-81
2022/03/15 14:04:07;;;;;;;16.10;6.78;;;;;;;;;;5001014;28;20056;-81
2022/03/15 14:06:39;;;;;;;14.63;5.78;;;;;;;;;;4995436;28;20670;-81
2022/03/15 14:09:05;;;;;;;14.68;6.00;;;;;;;;;;4978367;28;20080;-81
2022/03/15 14:11:35;;;;;;;10.88;4.95;;;;;;;;;;4997410;28;20030;-81
2022/03/15 14:14:06;;;;;;;16.55;5.50;;;;;;;;;;4985139;28;20034;-81
2022/03/15 14:16:35;;;;;;;17.48;6.07;;;;;;;;;;4996577;28;20088;-81
2022/03/15 14:19:02;;;;;;;12.13;6.13;;;;;;;;;;4987580;28;20038;-81
2022/03/15 14:21:30;;;;;;;19.48;6.00;;;;;;;;;;4996785;28;20021;-81
2022/03/15 14:23:58;;;;;;;20.13;6.03;;;;;;;;;;4999753;28;20030;-82